sensor_id;sensor_type;location;lat;lon;timestamp;pressure;altitude;pressure_sealevel;temperature;humidity
69171;BME280;56279;47.902;12.308;2022-12-18T00:00:14;96454.66;;;-3.21;92.01
69171;BME280;56279;47.902;12.308;2022-12-18T00:02:16;96456.28;;;-3.20;92.51
69171;BME280;56279;47.902;12.308;2022-12-18T00:04:21;96458.06;;;-3.20;92.75
69171;BME280;56279;47.902;12.308;2022-12-18T00:06:25;96458.88;;;-3.20;92.91
69171;BME280;56279;47.902;12.308;2022-12-18T00:08:27;96469.19;;;-3.20;92.56
69171;BME280;56279;47.902;12.308;2022-12-18T00:10:29;96467.75;;;-3.22;92.39
69171;BME280;56279;47.902;12.308;2022-12-18T00:12:30;96451.44;;;-3.23;92.08
69171;BME280;56279;47.902;12.308;2022-12-18T00:14:31;96460.31;;;-3.25;92.29
69171;BME280;56279;47.902;12.308;2022-12-18T00:16:32;96458.84;;;-3.28;92.75
69171;BME280;56279;47.902;12.308;2022-12-18T00:18:36;96459.66;;;-3.27;92.37
69171;BME280;56279;47.902;12.308;2022-12-18T00:20:39;96452.88;;;-3.28;92.41
69171;BME280;56279;47.902;12.308;2022-12-18T00:22:41;96454.66;;;-3.29;92.51
69171;BME280;56279;47.902;12.308;2022-12-18T00:24:42;96457.22;;;-3.29;92.54
69171;BME280;56279;47.902;12.308;2022-12-18T00:26:44;96455.81;;;-3.31;92.94
69171;BME280;56279;47.902;12.308;2022-12-18T00:28:46;96456.78;;;-3.32;92.90
69171;BME280;56279;47.902;12.308;2022-12-18T00:30:47;96455.00;;;-3.32;92.34
69171;BME280;56279;47.902;12.308;2022-12-18T00:32:52;96455.00;;;-3.32;92.45
69171;BME280;56279;47.902;12.308;2022-12-18T00:34:53;96450.97;;;-3.34;92.48
69171;BME280;56279;47.902;12.308;2022-12-18T00:36:54;96451.78;;;-3.34;92.77
69171;BME280;56279;47.902;12.308;2022-12-18T00:38:57;96456.13;;;-3.34;92.82
69171;BME280;56279;47.902;12.308;2022-12-18T00:41:01;96456.94;;;-3.34;92.83
69171;BME280;56279;47.902;12.308;2022-12-18T00:43:02;96455.00;;;-3.32;92.79
69171;BME280;56279;47.902;12.308;2022-12-18T00:45:04;96452.56;;;-3.33;92.44
69171;BME280;56279;47.902;12.308;2022-12-18T00:47:06;96450.16;;;-3.35;92.94
69171;BME280;56279;47.902;12.308;2022-12-18T00:49:08;96450.47;;;-3.38;92.24
69171;BME280;56279;47.902;12.308;2022-12-18T00:51:10;96454.03;;;-3.39;92.36
69171;BME280;56279;47.902;12.308;2022-12-18T00:53:11;96454.03;;;-3.39;92.68
69171;BME280;56279;47.902;12.308;2022-12-18T00:55:13;96450.66;;;-3.39;92.51
69171;BME280;56279;47.902;12.308;2022-12-18T00:57:14;96443.22;;;-3.42;92.55
69171;BME280;56279;47.902;12.308;2022-12-18T00:59:16;96440.81;;;-3.44;92.52
69171;BME280;56279;47.902;12.308;2022-12-18T01:01:18;96442.25;;;-3.50;92.71
69171;BME280;56279;47.902;12.308;2022-12-18T01:03:20;96443.38;;;-3.52;92.46
69171;BME280;56279;47.902;12.308;2022-12-18T01:05:21;96449.53;;;-3.53;92.94
69171;BME280;56279;47.902;12.308;2022-12-18T01:07:23;96462.75;;;-3.56;92.16
69171;BME280;56279;47.902;12.308;2022-12-18T01:09:25;96459.53;;;-3.58;93.21
69171;BME280;56279;47.902;12.308;2022-12-18T01:11:26;96463.22;;;-3.61;93.01
69171;BME280;56279;47.902;12.308;2022-12-18T01:13:28;96465.16;;;-3.63;92.55
69171;BME280;56279;47.902;12.308;2022-12-18T01:15:29;96468.56;;;-3.62;93.08
69171;BME280;56279;47.902;12.308;2022-12-18T01:17:30;96471.28;;;-3.64;93.34
69171;BME280;56279;47.902;12.308;2022-12-18T01:19:32;96475.78;;;-3.66;92.46
69171;BME280;56279;47.902;12.308;2022-12-18T01:21:33;96479.34;;;-3.67;92.87
69171;BME280;56279;47.902;12.308;2022-12-18T01:23:38;96486.28;;;-3.67;92.56
69171;BME280;56279;47.902;12.308;2022-12-18T01:25:39;96493.38;;;-3.69;92.45
69171;BME280;56279;47.902;12.308;2022-12-18T01:27:44;96488.53;;;-3.72;92.44
69171;BME280;56279;47.902;12.308;2022-12-18T01:29:45;96489.34;;;-3.72;93.05
69171;BME280;56279;47.902;12.308;2022-12-18T01:31:48;96485.00;;;-3.71;92.40
69171;BME280;56279;47.902;12.308;2022-12-18T01:33:51;96485.00;;;-3.71;93.28
69171;BME280;56279;47.902;12.308;2022-12-18T01:35:52;96481.44;;;-3.70;92.82
69171;BME280;56279;47.902;12.308;2022-12-18T01:37:56;96480.47;;;-3.69;92.71
69171;BME280;56279;47.902;12.308;2022-12-18T01:39:57;96482.41;;;-3.71;92.66
69171;BME280;56279;47.902;12.308;2022-12-18T01:42:20;96489.16;;;-3.70;92.73
69171;BME280;56279;47.902;12.308;2022-12-18T01:46:48;96483.69;;;-3.67;92.61
69171;BME280;56279;47.902;12.308;2022-12-18T01:48:53;96483.53;;;-3.66;93.05
69171;BME280;56279;47.902;12.308;2022-12-18T01:50:56;96490.47;;;-3.66;92.51
69171;BME280;56279;47.902;12.308;2022-12-18T01:53:02;96490.47;;;-3.66;92.28
69171;BME280;56279;47.902;12.308;2022-12-18T01:55:06;96491.91;;;-3.64;92.36
69171;BME280;56279;47.902;12.308;2022-12-18T01:57:07;96499.81;;;-3.65;92.91
69171;BME280;56279;47.902;12.308;2022-12-18T01:59:11;96498.19;;;-3.66;92.96
69171;BME280;56279;47.902;12.308;2022-12-18T02:01:12;96499.19;;;-3.67;92.76
69171;BME280;56279;47.902;12.308;2022-12-18T02:03:14;96507.88;;;-3.68;93.04
69171;BME280;56279;47.902;12.308;2022-12-18T02:06:01;96511.25;;;-3.68;93.18
69171;BME280;56279;47.902;12.308;2022-12-18T02:07:48;96523.03;;;-3.65;92.58
69171;BME280;56279;47.902;12.308;2022-12-18T02:10:02;96531.41;;;-3.63;92.76
69171;BME280;56279;47.902;12.308;2022-12-18T02:12:13;96528.81;;;-3.63;92.25
69171;BME280;56279;47.902;12.308;2022-12-18T02:14:20;96521.25;;;-3.65;92.26
69171;BME280;56279;47.902;12.308;2022-12-18T02:18:49;96531.06;;;-3.68;92.92
69171;BME280;56279;47.902;12.308;2022-12-18T02:21:02;96524.63;;;-3.72;92.73
69171;BME280;56279;47.902;12.308;2022-12-18T02:23:29;96524.94;;;-3.75;92.13
69171;BME280;56279;47.902;12.308;2022-12-18T02:28:35;96532.03;;;-3.85;92.46
69171;BME280;56279;47.902;12.308;2022-12-18T02:30:41;96524.09;;;-3.92;92.87
69171;BME280;56279;47.902;12.308;2022-12-18T02:32:47;96518.94;;;-3.92;93.14
69171;BME280;56279;47.902;12.308;2022-12-18T02:34:50;96518.16;;;-3.92;93.28
69171;BME280;56279;47.902;12.308;2022-12-18T02:36:53;96518.16;;;-3.92;92.29
69171;BME280;56279;47.902;12.308;2022-12-18T02:38:56;96507.03;;;-3.93;92.66
69171;BME280;56279;47.902;12.308;2022-12-18T02:41:00;96501.22;;;-3.95;93.30
69171;BME280;56279;47.902;12.308;2022-12-18T02:43:12;96503.00;;;-3.95;92.70
69171;BME280;56279;47.902;12.308;2022-12-18T02:45:13;96504.94;;;-3.97;92.88
69171;BME280;56279;47.902;12.308;2022-12-18T02:47:17;96517.16;;;-3.99;92.61
69171;BME280;56279;47.902;12.308;2022-12-18T02:49:30;96513.94;;;-4.01;92.79
69171;BME280;56279;47.902;12.308;2022-12-18T02:51:49;96517.31;;;-4.01;92.33
69171;BME280;56279;47.902;12.308;2022-12-18T02:54:09;96522.47;;;-4.01;92.21
69171;BME280;56279;47.902;12.308;2022-12-18T02:56:19;96511.69;;;-4.04;92.31
69171;BME280;56279;47.902;12.308;2022-12-18T03:01:21;96516.78;;;-4.12;92.88
69171;BME280;56279;47.902;12.308;2022-12-18T03:03:31;96517.59;;;-4.12;92.32
69171;BME280;56279;47.902;12.308;2022-12-18T03:05:38;96514.09;;;-4.11;93.12
69171;BME280;56279;47.902;12.308;2022-12-18T03:07:56;96517.13;;;-4.15;92.50
69171;BME280;56279;47.902;12.308;2022-12-18T03:10:06;96517.44;;;-4.18;93.15
69171;BME280;56279;47.902;12.308;2022-12-18T03:14:25;96516.63;;;-4.19;92.26
69171;BME280;56279;47.902;12.308;2022-12-18T03:16:31;96508.06;;;-4.20;92.26
69171;BME280;56279;47.902;12.308;2022-12-18T03:18:39;96506.63;;;-4.22;93.09
69171;BME280;56279;47.902;12.308;2022-12-18T03:20:43;96512.59;;;-4.22;92.27
69171;BME280;56279;47.902;12.308;2022-12-18T03:22:54;96514.34;;;-4.22;92.87
69171;BME280;56279;47.902;12.308;2022-12-18T03:25:02;96510.66;;;-4.20;92.85
69171;BME280;56279;47.902;12.308;2022-12-18T03:27:07;96509.06;;;-4.21;92.37
69171;BME280;56279;47.902;12.308;2022-12-18T03:29:48;96523.22;;;-4.16;92.95
69171;BME280;56279;47.902;12.308;2022-12-18T03:31:49;96517.44;;;-4.18;92.31
69171;BME280;56279;47.902;12.308;2022-12-18T03:33:56;96518.72;;;-4.23;92.68
69171;BME280;56279;47.902;12.308;2022-12-18T03:36:06;96513.69;;;-4.24;92.48
69171;BME280;56279;47.902;12.308;2022-12-18T03:38:09;96521.59;;;-4.26;92.95
69171;BME280;56279;47.902;12.308;2022-12-18T03:40:17;96514.81;;;-4.27;92.45
69171;BME280;56279;47.902;12.308;2022-12-18T03:42:28;96513.69;;;-4.24;92.34
69171;BME280;56279;47.902;12.308;2022-12-18T03:44:52;96512.09;;;-4.25;93.09
69171;BME280;56279;47.902;12.308;2022-12-18T03:49:14;96517.88;;;-4.31;93.00
69171;BME280;56279;47.902;12.308;2022-12-18T03:51:38;96518.97;;;-4.34;92.65
69171;BME280;56279;47.902;12.308;2022-12-18T03:55:47;96507.88;;;-4.34;93.11
69171;BME280;56279;47.902;12.308;2022-12-18T03:57:52;96505.63;;;-4.37;92.34
69171;BME280;56279;47.902;12.308;2022-12-18T04:00:01;96510.91;;;-4.39;92.71
69171;BME280;56279;47.902;12.308;2022-12-18T04:02:16;96506.91;;;-4.41;92.55
69171;BME280;56279;47.902;12.308;2022-12-18T04:04:21;96509.13;;;-4.38;92.23
69171;BME280;56279;47.902;12.308;2022-12-18T04:06:23;96508.31;;;-4.39;93.07
69171;BME280;56279;47.902;12.308;2022-12-18T04:08:26;96512.53;;;-4.38;92.90
69171;BME280;56279;47.902;12.308;2022-12-18T04:10:36;96495.31;;;-4.37;92.83
69171;BME280;56279;47.902;12.308;2022-12-18T04:12:37;96497.06;;;-4.38;92.07
69171;BME280;56279;47.902;12.308;2022-12-18T04:14:40;96511.84;;;-4.48;92.65
69171;BME280;56279;47.902;12.308;2022-12-18T04:16:43;96517.91;;;-4.57;92.50
69171;BME280;56279;47.902;12.308;2022-12-18T04:18:47;96520.47;;;-4.65;92.90
69171;BME280;56279;47.902;12.308;2022-12-18T04:20:50;96521.06;;;-4.71;93.14
69171;BME280;56279;47.902;12.308;2022-12-18T04:22:52;96514.91;;;-4.78;92.35
69171;BME280;56279;47.902;12.308;2022-12-18T04:24:55;96519.69;;;-4.83;92.49
69171;BME280;56279;47.902;12.308;2022-12-18T04:27:05;96522.44;;;-4.84;92.66
69171;BME280;56279;47.902;12.308;2022-12-18T04:29:11;96524.38;;;-4.86;93.31
69171;BME280;56279;47.902;12.308;2022-12-18T04:31:15;96523.84;;;-4.90;92.36
69171;BME280;56279;47.902;12.308;2022-12-18T04:33:16;96524.28;;;-4.95;92.68
69171;BME280;56279;47.902;12.308;2022-12-18T04:35:18;96513.50;;;-4.98;92.39
69171;BME280;56279;47.902;12.308;2022-12-18T04:37:19;96519.47;;;-4.98;92.74
69171;BME280;56279;47.902;12.308;2022-12-18T04:39:24;96515.94;;;-4.97;93.16
69171;BME280;56279;47.902;12.308;2022-12-18T04:41:28;96524.28;;;-4.95;93.09
69171;BME280;56279;47.902;12.308;2022-12-18T04:43:30;96527.19;;;-4.98;93.14
69171;BME280;56279;47.902;12.308;2022-12-18T04:45:31;96534.91;;;-4.98;92.89
69171;BME280;56279;47.902;12.308;2022-12-18T04:47:33;96534.09;;;-4.98;93.04
69171;BME280;56279;47.902;12.308;2022-12-18T04:49:34;96539.25;;;-4.98;93.33
69171;BME280;56279;47.902;12.308;2022-12-18T04:51:36;96532.03;;;-4.95;92.58
69171;BME280;56279;47.902;12.308;2022-12-18T04:53:38;96530.91;;;-4.92;93.11
69171;BME280;56279;47.902;12.308;2022-12-18T04:55:39;96526.56;;;-4.92;92.24
69171;BME280;56279;47.902;12.308;2022-12-18T04:57:40;96531.72;;;-4.92;93.13
69171;BME280;56279;47.902;12.308;2022-12-18T04:59:42;96520.63;;;-4.92;92.40
69171;BME280;56279;47.902;12.308;2022-12-18T05:01:43;96530.63;;;-4.89;93.32
69171;BME280;56279;47.902;12.308;2022-12-18T05:03:44;96544.13;;;-4.87;92.48
69171;BME280;56279;47.902;12.308;2022-12-18T05:05:49;96550.25;;;-4.88;93.18
69171;BME280;56279;47.902;12.308;2022-12-18T05:07:52;96556.66;;;-4.92;93.01
69171;BME280;56279;47.902;12.308;2022-12-18T05:09:54;96550.84;;;-4.94;92.63
69171;BME280;56279;47.902;12.308;2022-12-18T05:11:55;96558.88;;;-4.97;92.20
69171;BME280;56279;47.902;12.308;2022-12-18T05:13:56;96564.47;;;-5.02;92.60
69171;BME280;56279;47.902;12.308;2022-12-18T05:15:58;96565.59;;;-5.04;93.18
69171;BME280;56279;47.902;12.308;2022-12-18T05:18:00;96567.19;;;-5.03;92.61
69171;BME280;56279;47.902;12.308;2022-12-18T05:20:01;96567.34;;;-5.05;92.90
69171;BME280;56279;47.902;12.308;2022-12-18T05:22:03;96563.03;;;-5.04;93.25
69171;BME280;56279;47.902;12.308;2022-12-18T05:24:04;96555.44;;;-5.06;92.80
69171;BME280;56279;47.902;12.308;2022-12-18T05:26:07;96547.72;;;-5.06;92.63
69171;BME280;56279;47.902;12.308;2022-12-18T05:28:09;96553.97;;;-5.08;92.41
69171;BME280;56279;47.902;12.308;2022-12-18T05:30:11;96571.16;;;-5.09;92.64
69171;BME280;56279;47.902;12.308;2022-12-18T05:32:12;96571.97;;;-5.08;93.08
69171;BME280;56279;47.902;12.308;2022-12-18T05:34:13;96568.47;;;-5.07;92.83
69171;BME280;56279;47.902;12.308;2022-12-18T05:36:15;96567.47;;;-5.06;92.54
69171;BME280;56279;47.902;12.308;2022-12-18T05:38:16;96557.50;;;-5.09;92.73
69171;BME280;56279;47.902;12.308;2022-12-18T05:40:17;96564.72;;;-5.13;92.23
69171;BME280;56279;47.902;12.308;2022-12-18T05:42:18;96581.13;;;-5.14;92.37
69171;BME280;56279;47.902;12.308;2022-12-18T05:44:20;96586.38;;;-5.15;92.66
69171;BME280;56279;47.902;12.308;2022-12-18T05:46:21;96590.22;;;-5.19;91.96
69171;BME280;56279;47.902;12.308;2022-12-18T05:48:22;96584.72;;;-5.24;92.23
69171;BME280;56279;47.902;12.308;2022-12-18T05:50:24;96583.25;;;-5.27;92.77
69171;BME280;56279;47.902;12.308;2022-12-18T05:52:25;96580.16;;;-5.30;92.85
69171;BME280;56279;47.902;12.308;2022-12-18T05:54:28;96592.00;;;-5.37;92.80
69171;BME280;56279;47.902;12.308;2022-12-18T05:56:29;96598.09;;;-5.38;92.28
69171;BME280;56279;47.902;12.308;2022-12-18T05:58:31;96604.69;;;-5.36;93.14
69171;BME280;56279;47.902;12.308;2022-12-18T06:00:36;96599.56;;;-5.36;92.58
69171;BME280;56279;47.902;12.308;2022-12-18T06:02:40;96601.69;;;-5.31;92.87
69171;BME280;56279;47.902;12.308;2022-12-18T06:04:42;96606.72;;;-5.30;92.59
69171;BME280;56279;47.902;12.308;2022-12-18T06:06:43;96593.69;;;-5.28;92.33
69171;BME280;56279;47.902;12.308;2022-12-18T06:08:44;96592.88;;;-5.29;92.71
69171;BME280;56279;47.902;12.308;2022-12-18T06:10:50;96603.31;;;-5.30;91.96
69171;BME280;56279;47.902;12.308;2022-12-18T06:12:52;96596.41;;;-5.30;91.92
69171;BME280;56279;47.902;12.308;2022-12-18T06:14:53;96594.78;;;-5.31;92.55
69171;BME280;56279;47.902;12.308;2022-12-18T06:16:55;96599.13;;;-5.31;92.55
69171;BME280;56279;47.902;12.308;2022-12-18T06:19:00;96608.31;;;-5.29;92.41
69171;BME280;56279;47.902;12.308;2022-12-18T06:21:02;96614.56;;;-5.31;91.85
69171;BME280;56279;47.902;12.308;2022-12-18T06:23:03;96621.31;;;-5.30;92.20
69171;BME280;56279;47.902;12.308;2022-12-18T06:25:05;96627.41;;;-5.31;91.94
69171;BME280;56279;47.902;12.308;2022-12-18T06:27:06;96622.56;;;-5.34;91.78
69171;BME280;56279;47.902;12.308;2022-12-18T06:29:08;96622.56;;;-5.34;91.93
69171;BME280;56279;47.902;12.308;2022-12-18T06:31:09;96623.25;;;-5.32;92.07
69171;BME280;56279;47.902;12.308;2022-12-18T06:33:10;96628.88;;;-5.29;91.93
69171;BME280;56279;47.902;12.308;2022-12-18T06:35:12;96623.25;;;-5.32;91.84
69171;BME280;56279;47.902;12.308;2022-12-18T06:37:13;96615.53;;;-5.32;92.08
69171;BME280;56279;47.902;12.308;2022-12-18T06:39:14;96613.59;;;-5.30;92.49
69171;BME280;56279;47.902;12.308;2022-12-18T06:41:18;96615.22;;;-5.29;92.54
69171;BME280;56279;47.902;12.308;2022-12-18T06:43:20;96617.78;;;-5.29;92.22
69171;BME280;56279;47.902;12.308;2022-12-18T06:45:21;96609.78;;;-5.26;91.78
69171;BME280;56279;47.902;12.308;2022-12-18T06:47:22;96612.72;;;-5.21;91.81
69171;BME280;56279;47.902;12.308;2022-12-18T06:49:23;96600.34;;;-5.18;92.38
69171;BME280;56279;47.902;12.308;2022-12-18T06:51:25;96607.13;;;-5.17;91.67
69171;BME280;56279;47.902;12.308;2022-12-18T06:53:26;96616.59;;;-5.17;91.75
69171;BME280;56279;47.902;12.308;2022-12-18T06:55:28;96608.88;;;-5.17;91.58
69171;BME280;56279;47.902;12.308;2022-12-18T06:57:29;96616.31;;;-5.14;92.09
69171;BME280;56279;47.902;12.308;2022-12-18T06:59:31;96620.94;;;-5.18;91.88
69171;BME280;56279;47.902;12.308;2022-12-18T07:01:32;96614.19;;;-5.19;91.80
69171;BME280;56279;47.902;12.308;2022-12-18T07:03:33;96620.94;;;-5.18;92.40
69171;BME280;56279;47.902;12.308;2022-12-18T07:05:39;96627.72;;;-5.17;91.96
69171;BME280;56279;47.902;12.308;2022-12-18T07:07:41;96632.63;;;-5.23;91.99
69171;BME280;56279;47.902;12.308;2022-12-18T07:09:42;96634.41;;;-5.24;91.30
69171;BME280;56279;47.902;12.308;2022-12-18T07:11:43;96633.47;;;-5.23;91.64
69171;BME280;56279;47.902;12.308;2022-12-18T07:13:45;96641.66;;;-5.19;92.32
69171;BME280;56279;47.902;12.308;2022-12-18T07:15:46;96638.16;;;-5.18;91.51
69171;BME280;56279;47.902;12.308;2022-12-18T07:17:48;96640.19;;;-5.22;91.81
69171;BME280;56279;47.902;12.308;2022-12-18T07:19:49;96643.59;;;-5.21;91.48
69171;BME280;56279;47.902;12.308;2022-12-18T07:21:51;96650.22;;;-5.19;91.80
69171;BME280;56279;47.902;12.308;2022-12-18T07:23:52;96648.28;;;-5.17;92.11
69171;BME280;56279;47.902;12.308;2022-12-18T07:25:53;96654.91;;;-5.14;92.28
69171;BME280;56279;47.902;12.308;2022-12-18T07:27:55;96646.75;;;-5.10;91.88
69171;BME280;56279;47.902;12.308;2022-12-18T07:29:56;96664.97;;;-5.03;92.15
69171;BME280;56279;47.902;12.308;2022-12-18T07:31:58;96659.53;;;-5.00;91.99
69171;BME280;56279;47.902;12.308;2022-12-18T07:33:59;96659.81;;;-5.03;91.92
69171;BME280;56279;47.902;12.308;2022-12-18T07:36:01;96659.97;;;-5.05;91.69
69171;BME280;56279;47.902;12.308;2022-12-18T07:38:04;96663.88;;;-5.01;91.66
69171;BME280;56279;47.902;12.308;2022-12-18T07:40:05;96660.84;;;-4.96;92.24
69171;BME280;56279;47.902;12.308;2022-12-18T07:42:07;96666.00;;;-4.96;91.34
69171;BME280;56279;47.902;12.308;2022-12-18T07:44:27;96674.16;;;-5.01;91.13
69171;BME280;56279;47.902;12.308;2022-12-18T07:46:28;96673.34;;;-5.01;91.31
69171;BME280;56279;47.902;12.308;2022-12-18T07:48:29;96678.22;;;-4.98;91.46
69171;BME280;56279;47.902;12.308;2022-12-18T07:50:31;96681.59;;;-4.98;91.59
69171;BME280;56279;47.902;12.308;2022-12-18T07:52:32;96671.16;;;-4.96;91.61
69171;BME280;56279;47.902;12.308;2022-12-18T07:54:34;96667.09;;;-4.99;91.87
69171;BME280;56279;47.902;12.308;2022-12-18T07:56:35;96672.13;;;-4.97;91.45
69171;BME280;56279;47.902;12.308;2022-12-18T07:58:36;96670.66;;;-5.00;91.06
69171;BME280;56279;47.902;12.308;2022-12-18T08:00:38;96679.09;;;-5.07;91.27
69171;BME280;56279;47.902;12.308;2022-12-18T08:02:39;96679.81;;;-5.15;91.92
69171;BME280;56279;47.902;12.308;2022-12-18T08:04:40;96678.72;;;-5.12;91.50
69171;BME280;56279;47.902;12.308;2022-12-18T08:06:42;96678.13;;;-5.06;91.53
69171;BME280;56279;47.902;12.308;2022-12-18T08:08:43;96681.72;;;-4.99;91.96
69171;BME280;56279;47.902;12.308;2022-12-18T08:10:45;96676.81;;;-4.93;91.07
69171;BME280;56279;47.902;12.308;2022-12-18T08:12:50;96679.59;;;-4.86;91.76
69171;BME280;56279;47.902;12.308;2022-12-18T08:14:52;96672.53;;;-4.84;91.65
69171;BME280;56279;47.902;12.308;2022-12-18T08:16:53;96679.28;;;-4.83;91.11
69171;BME280;56279;47.902;12.308;2022-12-18T08:18:54;96677.53;;;-4.82;91.56
69171;BME280;56279;47.902;12.308;2022-12-18T08:20:56;96677.16;;;-4.88;91.36
69171;BME280;56279;47.902;12.308;2022-12-18T08:22:57;96673.63;;;-4.86;90.90
69171;BME280;56279;47.902;12.308;2022-12-18T08:24:59;96670.47;;;-4.80;91.32
69171;BME280;56279;47.902;12.308;2022-12-18T08:27:00;96664.88;;;-4.76;91.35
69171;BME280;56279;47.902;12.308;2022-12-18T08:29:01;96675.03;;;-4.74;90.95
69171;BME280;56279;47.902;12.308;2022-12-18T08:31:03;96675.25;;;-4.68;91.56
69171;BME280;56279;47.902;12.308;2022-12-18T08:33:04;96676.56;;;-4.64;90.90
69171;BME280;56279;47.902;12.308;2022-12-18T08:35:06;96680.47;;;-4.60;91.03
69171;BME280;56279;47.902;12.308;2022-12-18T08:37:09;96675.00;;;-4.57;90.46
69171;BME280;56279;47.902;12.308;2022-12-18T08:39:10;96674.25;;;-4.49;90.62
69171;BME280;56279;47.902;12.308;2022-12-18T08:41:13;96676.38;;;-4.45;91.00
69171;BME280;56279;47.902;12.308;2022-12-18T08:43:15;96678.00;;;-4.44;90.37
69171;BME280;56279;47.902;12.308;2022-12-18T08:45:35;96680.72;;;-4.45;90.70
69171;BME280;56279;47.902;12.308;2022-12-18T08:47:38;96680.56;;;-4.44;90.11
69171;BME280;56279;47.902;12.308;2022-12-18T08:49:39;96682.53;;;-4.38;90.89
69171;BME280;56279;47.902;12.308;2022-12-18T08:51:41;96687.41;;;-4.35;90.13
69171;BME280;56279;47.902;12.308;2022-12-18T08:53:47;96681.78;;;-4.30;90.13
69171;BME280;56279;47.902;12.308;2022-12-18T08:55:48;96693.41;;;-4.26;90.69
69171;BME280;56279;47.902;12.308;2022-12-18T08:57:49;96688.88;;;-4.32;89.30
69171;BME280;56279;47.902;12.308;2022-12-18T08:59:51;96691.72;;;-4.35;89.75
69171;BME280;56279;47.902;12.308;2022-12-18T09:01:53;96699.75;;;-4.38;89.82
69171;BME280;56279;47.902;12.308;2022-12-18T09:03:54;96693.94;;;-4.40;90.66
69171;BME280;56279;47.902;12.308;2022-12-18T09:05:56;96696.88;;;-4.35;90.61
69171;BME280;56279;47.902;12.308;2022-12-18T09:07:57;96704.16;;;-4.31;89.64
69171;BME280;56279;47.902;12.308;2022-12-18T09:09:59;96717.69;;;-4.29;89.47
69171;BME280;56279;47.902;12.308;2022-12-18T09:12:00;96711.28;;;-4.25;90.17
69171;BME280;56279;47.902;12.308;2022-12-18T09:14:01;96704.97;;;-4.30;89.31
69171;BME280;56279;47.902;12.308;2022-12-18T09:16:03;96712.25;;;-4.26;89.69
69171;BME280;56279;47.902;12.308;2022-12-18T09:18:04;96715.03;;;-4.19;90.08
69171;BME280;56279;47.902;12.308;2022-12-18T09:20:06;96723.56;;;-4.18;89.91
69171;BME280;56279;47.902;12.308;2022-12-18T09:22:07;96725.84;;;-4.15;89.35
69171;BME280;56279;47.902;12.308;2022-12-18T09:24:12;96712.72;;;-4.04;90.03
69171;BME280;56279;47.902;12.308;2022-12-18T09:26:14;96709.88;;;-3.93;88.98
69171;BME280;56279;47.902;12.308;2022-12-18T09:28:17;96701.06;;;-3.83;89.41
69171;BME280;56279;47.902;12.308;2022-12-18T09:30:19;96708.00;;;-3.75;88.95
69171;BME280;56279;47.902;12.308;2022-12-18T09:32:20;96708.53;;;-3.72;88.85
69171;BME280;56279;47.902;12.308;2022-12-18T09:34:21;96712.81;;;-3.80;88.24
69171;BME280;56279;47.902;12.308;2022-12-18T09:36:22;96712.50;;;-3.85;89.06
69171;BME280;56279;47.902;12.308;2022-12-18T09:38:24;96705.91;;;-3.80;88.80
69171;BME280;56279;47.902;12.308;2022-12-18T09:40:29;96704.78;;;-3.77;88.98
69171;BME280;56279;47.902;12.308;2022-12-18T09:42:33;96687.72;;;-3.78;89.24
69171;BME280;56279;47.902;12.308;2022-12-18T09:44:59;96690.31;;;-3.70;88.78
69171;BME280;56279;47.902;12.308;2022-12-18T09:49:13;96697.13;;;-3.61;89.12
69171;BME280;56279;47.902;12.308;2022-12-18T09:51:26;96696.19;;;-3.52;88.18
69171;BME280;56279;47.902;12.308;2022-12-18T09:53:31;96701.03;;;-3.49;88.73
69171;BME280;56279;47.902;12.308;2022-12-18T09:55:38;96704.44;;;-3.48;88.59
69171;BME280;56279;47.902;12.308;2022-12-18T09:57:47;96697.69;;;-3.41;87.91
69171;BME280;56279;47.902;12.308;2022-12-18T09:59:56;96692.66;;;-3.43;87.59
69171;BME280;56279;47.902;12.308;2022-12-18T10:02:00;96695.09;;;-3.41;87.90
69171;BME280;56279;47.902;12.308;2022-12-18T10:04:01;96695.75;;;-3.39;87.72
69171;BME280;56279;47.902;12.308;2022-12-18T10:06:13;96689.16;;;-3.34;87.91
69171;BME280;56279;47.902;12.308;2022-12-18T10:08:27;96681.75;;;-3.29;87.74
69171;BME280;56279;47.902;12.308;2022-12-18T10:10:38;96690.63;;;-3.23;87.55
69171;BME280;56279;47.902;12.308;2022-12-18T10:13:05;96682.91;;;-3.15;87.51
69171;BME280;56279;47.902;12.308;2022-12-18T10:15:22;96688.56;;;-3.12;87.38
69171;BME280;56279;47.902;12.308;2022-12-18T10:20:00;96681.97;;;-3.06;87.35
69171;BME280;56279;47.902;12.308;2022-12-18T10:24:29;96669.81;;;-3.22;87.13
69171;BME280;56279;47.902;12.308;2022-12-18T10:26:34;96668.22;;;-3.23;87.17
69171;BME280;56279;47.902;12.308;2022-12-18T10:28:37;96665.00;;;-3.25;86.82
69171;BME280;56279;47.902;12.308;2022-12-18T10:30:41;96667.06;;;-3.28;87.38
69171;BME280;56279;47.902;12.308;2022-12-18T10:32:43;96654.94;;;-3.36;87.28
69171;BME280;56279;47.902;12.308;2022-12-18T10:34:48;96666.72;;;-3.41;87.32
69171;BME280;56279;47.902;12.308;2022-12-18T10:36:50;96653.81;;;-3.33;87.18
69171;BME280;56279;47.902;12.308;2022-12-18T10:38:52;96654.34;;;-3.22;87.80
69171;BME280;56279;47.902;12.308;2022-12-18T10:43:13;96657.13;;;-2.99;87.49
69171;BME280;56279;47.902;12.308;2022-12-18T10:45:17;96651.97;;;-2.91;86.83
69171;BME280;56279;47.902;12.308;2022-12-18T10:47:21;96648.56;;;-2.84;87.06
69171;BME280;56279;47.902;12.308;2022-12-18T10:49:27;96657.94;;;-2.83;86.42
69171;BME280;56279;47.902;12.308;2022-12-18T10:51:32;96646.47;;;-2.80;86.59
69171;BME280;56279;47.902;12.308;2022-12-18T10:53:37;96642.44;;;-2.74;86.77
69171;BME280;56279;47.902;12.308;2022-12-18T10:55:39;96640.34;;;-2.71;86.67
69171;BME280;56279;47.902;12.308;2022-12-18T10:57:45;96640.50;;;-2.64;86.27
69171;BME280;56279;47.902;12.308;2022-12-18T10:59:56;96638.41;;;-2.61;86.51
69171;BME280;56279;47.902;12.308;2022-12-18T11:01:58;96637.28;;;-2.50;86.29
69171;BME280;56279;47.902;12.308;2022-12-18T11:04:02;96634.66;;;-2.42;86.35
69171;BME280;56279;47.902;12.308;2022-12-18T11:08:21;96640.97;;;-2.37;86.18
69171;BME280;56279;47.902;12.308;2022-12-18T11:10:33;96639.34;;;-2.38;86.41
69171;BME280;56279;47.902;12.308;2022-12-18T11:12:35;96629.66;;;-2.44;85.71
69171;BME280;56279;47.902;12.308;2022-12-18T11:14:46;96635.81;;;-2.61;85.78
69171;BME280;56279;47.902;12.308;2022-12-18T11:16:48;96632.13;;;-2.66;86.12